createdAt,value
2023-01-01T00:04:01.627Z,13.93
2023-01-01T00:09:24.113Z,13.92
2023-01-01T00:14:29.462Z,13.86
2023-01-01T00:19:33.655Z,13.80
2023-01-01T00:24:37.283Z,13.71
2023-01-01T00:29:42.874Z,13.75
2023-01-01T00:34:46.531Z,13.76
2023-01-01T00:39:50.759Z,13.83
2023-01-01T00:44:56.081Z,13.68
2023-01-01T00:50:00.150Z,13.73
2023-01-01T00:55:04.374Z,13.81
2023-01-01T01:00:11.508Z,13.89
2023-01-01T01:05:15.188Z,13.87
2023-01-01T01:10:21.594Z,13.88
2023-01-01T01:15:26.752Z,13.81
2023-01-01T01:20:30.545Z,13.65
2023-01-01T01:25:34.210Z,13.75
2023-01-01T01:30:40.474Z,13.64
2023-01-01T01:35:46.906Z,13.62
2023-01-01T01:40:50.953Z,13.31
2023-01-01T01:45:59.972Z,13.51
2023-01-01T01:51:03.662Z,13.61
2023-01-01T01:56:10.140Z,13.62
2023-01-01T02:01:15.633Z,13.51
2023-01-01T02:06:20.378Z,13.52
2023-01-01T02:11:24.238Z,13.57
2023-01-01T02:16:37.955Z,13.54
2023-01-01T02:21:59.202Z,13.59
2023-01-01T02:27:08.269Z,13.57
2023-01-01T02:32:17.825Z,13.55
2023-01-01T02:37:25.103Z,13.39
2023-01-01T02:42:30.420Z,13.38
2023-01-01T02:47:35.384Z,13.43
2023-01-01T02:53:02.935Z,13.55
2023-01-01T02:58:31.158Z,13.49
2023-01-01T03:03:41.562Z,13.48
2023-01-01T03:08:52.847Z,13.52
2023-01-01T03:14:03.614Z,13.48
2023-01-01T03:19:12.323Z,13.41
2023-01-01T03:24:24.089Z,13.51
2023-01-01T03:29:32.726Z,13.39
2023-01-01T03:34:41.584Z,13.45
2023-01-01T03:39:50.749Z,13.31
2023-01-01T03:45:01.738Z,13.26
2023-01-01T03:50:08.324Z,13.38
2023-01-01T03:55:18.303Z,13.27
2023-01-01T04:00:24.670Z,13.22
2023-01-01T04:05:31.159Z,13.21
2023-01-01T04:10:38.073Z,12.94
2023-01-01T04:15:41.696Z,13.17
2023-01-01T04:20:46.702Z,12.98
2023-01-01T04:25:50.300Z,13.07
2023-01-01T04:35:57.800Z,13.16
2023-01-01T04:41:01.923Z,13.11
2023-01-01T04:46:06.071Z,13.05
2023-01-01T04:51:14.199Z,13.07
2023-01-01T04:56:20.584Z,13.21
2023-01-01T05:01:26.184Z,13.01
2023-01-01T05:06:31.525Z,12.91
2023-01-01T05:11:35.105Z,12.89
2023-01-01T05:16:40.475Z,12.99
2023-01-01T05:21:46.715Z,12.86
2023-01-01T05:26:50.372Z,12.75
2023-01-01T05:31:54.274Z,12.70
2023-01-01T05:36:59.322Z,12.61
2023-01-01T05:42:02.945Z,12.58
2023-01-01T05:47:06.539Z,12.60
2023-01-01T05:52:11.796Z,12.65
2023-01-01T05:57:15.366Z,12.56
2023-01-01T06:02:18.985Z,12.42
2023-01-01T06:07:24.043Z,12.46
2023-01-01T06:12:27.742Z,12.17
2023-01-01T06:17:31.370Z,12.20
2023-01-01T06:22:38.725Z,12.10
2023-01-01T06:27:42.268Z,12.11
2023-01-01T06:32:45.795Z,12.06
2023-01-01T06:37:50.759Z,11.81
2023-01-01T06:42:54.263Z,11.90
2023-01-01T06:47:58.599Z,11.64
2023-01-01T06:53:03.893Z,11.62
2023-01-01T06:58:09.953Z,11.27
2023-01-01T07:03:14.088Z,11.54
2023-01-01T07:08:19.081Z,11.36
2023-01-01T07:13:23.149Z,11.44
2023-01-01T07:18:27.095Z,11.94
2023-01-01T07:23:34.598Z,11.88
2023-01-01T07:28:38.139Z,12.09
2023-01-01T07:33:41.848Z,12.10
2023-01-01T07:38:46.859Z,12.09
2023-01-01T07:43:50.447Z,12.21
2023-01-01T07:48:54.245Z,12.25
2023-01-01T07:54:05.686Z,12.08
2023-01-01T07:59:13.395Z,12.08
2023-01-01T08:04:20.622Z,12.00
2023-01-01T08:09:25.744Z,12.16
2023-01-01T08:14:29.467Z,12.26
2023-01-01T08:19:33.031Z,12.16
2023-01-01T08:24:38.133Z,12.31
2023-01-01T08:29:41.999Z,12.65
2023-01-01T08:34:46.683Z,12.76
2023-01-01T08:39:52.277Z,12.67
2023-01-01T08:44:55.998Z,12.70
2023-01-01T08:49:59.811Z,12.41
2023-01-01T08:55:05.143Z,12.81
2023-01-01T09:00:10.445Z,12.78
2023-01-01T09:05:14.189Z,12.94
2023-01-01T09:10:19.317Z,12.96
2023-01-01T09:15:23.099Z,13.05
2023-01-01T09:20:26.725Z,13.08
2023-01-01T09:25:32.484Z,12.99
2023-01-01T09:30:37.191Z,12.98
2023-01-01T09:35:44.229Z,13.03
2023-01-01T09:40:59.368Z,13.29
2023-01-01T09:46:07.191Z,13.28
2023-01-01T09:51:16.760Z,13.33
2023-01-01T09:56:26.944Z,13.51
2023-01-01T10:01:39.660Z,13.81
2023-01-01T10:06:47.972Z,13.87
2023-01-01T10:11:59.766Z,14.20
2023-01-01T10:17:10.396Z,14.53
2023-01-01T10:22:19.907Z,14.78
2023-01-01T10:27:32.070Z,14.85
2023-01-01T10:32:39.301Z,14.65
2023-01-01T10:37:43.487Z,14.62
2023-01-01T10:42:51.208Z,14.68
2023-01-01T10:48:19.472Z,14.70
2023-01-01T10:53:28.121Z,14.67
2023-01-01T10:58:40.668Z,14.69
2023-01-01T11:03:55.999Z,14.75
2023-01-01T11:09:03.519Z,14.72
2023-01-01T11:14:20.901Z,15.05
2023-01-01T11:19:29.127Z,15.02
2023-01-01T11:24:34.196Z,15.04
2023-01-01T11:29:39.570Z,15.21
2023-01-01T11:34:45.127Z,15.08
2023-01-01T11:39:52.651Z,15.40
2023-01-01T11:44:59.688Z,15.72
2023-01-01T11:50:15.025Z,15.85
2023-01-01T11:55:27.334Z,15.43
2023-01-01T12:00:37.058Z,15.55
2023-01-01T12:05:48.145Z,15.49
2023-01-01T12:10:57.039Z,15.78
2023-01-01T12:16:10.660Z,15.63
2023-01-01T12:21:20.451Z,15.51
2023-01-01T12:26:27.676Z,15.43
2023-01-01T12:31:40.085Z,15.37
2023-01-01T12:36:53.855Z,15.26
2023-01-01T12:42:06.054Z,15.48
2023-01-01T12:47:26.249Z,15.16
2023-01-01T12:52:41.446Z,15.09
2023-01-01T12:57:49.800Z,15.19
2023-01-01T13:03:00.323Z,15.10
2023-01-01T13:08:07.480Z,14.86
2023-01-01T13:13:13.196Z,14.70
2023-01-01T13:18:23.639Z,14.52
2023-01-01T13:23:47.924Z,14.60
2023-01-01T13:29:45.253Z,14.55
2023-01-01T13:35:20.634Z,14.51
2023-01-01T13:40:51.052Z,14.51
2023-01-01T13:46:13.606Z,14.42
2023-01-01T13:57:24.719Z,14.35
2023-01-01T14:02:33.400Z,14.30
2023-01-01T14:07:52.637Z,14.07
2023-01-01T14:13:03.800Z,14.15
2023-01-01T14:18:15.411Z,13.98
2023-01-01T14:23:26.474Z,14.10
2023-01-01T14:28:32.488Z,13.93
2023-01-01T14:33:36.394Z,13.98
2023-01-01T14:38:45.344Z,13.80
2023-01-01T14:43:51.945Z,13.54
2023-01-01T14:49:02.242Z,13.68
2023-01-01T14:54:07.690Z,13.50
2023-01-01T14:59:16.684Z,13.42
2023-01-01T15:04:24.007Z,13.52
2023-01-01T15:09:29.841Z,13.53
2023-01-01T15:14:37.549Z,13.49
2023-01-01T15:19:43.095Z,13.48
2023-01-01T15:24:48.016Z,13.37
2023-01-01T15:29:51.870Z,13.30
2023-01-01T15:34:58.601Z,13.34
2023-01-01T15:40:25.723Z,13.32
2023-01-01T15:45:32.349Z,13.28
2023-01-01T15:50:40.315Z,13.18
2023-01-01T15:55:47.735Z,13.00
2023-01-01T16:00:57.302Z,12.72
2023-01-01T16:06:02.618Z,12.59
2023-01-01T16:11:07.789Z,12.45
2023-01-01T16:16:27.925Z,12.11
2023-01-01T16:21:33.235Z,11.89
2023-01-01T16:26:38.395Z,11.83
2023-01-01T16:31:42.329Z,11.95
2023-01-01T16:36:46.661Z,11.78
2023-01-01T16:41:51.733Z,11.97
2023-01-01T16:46:55.389Z,11.61
2023-01-01T16:51:59.032Z,11.57
2023-01-01T16:57:04.687Z,11.66
2023-01-01T17:02:13.914Z,11.48
2023-01-01T17:07:17.863Z,11.31
2023-01-01T17:12:23.265Z,11.23
2023-01-01T17:17:27.031Z,11.28
2023-01-01T17:22:34.497Z,11.78
2023-01-01T17:27:40.071Z,11.89
2023-01-01T17:32:43.905Z,12.08
2023-01-01T17:37:47.893Z,12.27
2023-01-01T17:42:55.068Z,12.20
2023-01-01T17:47:58.697Z,12.13
2023-01-01T17:53:02.628Z,12.10
2023-01-01T17:58:08.677Z,12.32
2023-01-01T18:03:13.708Z,12.28
2023-01-01T18:08:17.367Z,12.51
2023-01-01T18:13:22.951Z,12.37
2023-01-01T18:18:27.122Z,12.32
2023-01-01T18:23:33.896Z,12.02
2023-01-01T18:28:39.469Z,11.65
2023-01-01T18:33:43.735Z,11.94
2023-01-01T18:38:56.372Z,11.93
2023-01-01T18:44:01.864Z,12.11
2023-01-01T18:49:12.029Z,11.80
2023-01-01T18:54:15.676Z,11.52
2023-01-01T18:59:25.858Z,11.44
2023-01-01T19:04:29.572Z,11.75
2023-01-01T19:09:33.422Z,11.80
2023-01-01T19:14:38.566Z,11.63
2023-01-01T19:19:42.246Z,12.06
2023-01-01T19:24:45.976Z,12.25
2023-01-01T19:29:52.227Z,12.46
2023-01-01T19:34:56.688Z,12.44
2023-01-01T19:40:00.672Z,12.26
2023-01-01T19:45:08.298Z,12.05
2023-01-01T19:50:12.693Z,12.14
2023-01-01T19:55:17.310Z,12.20
2023-01-01T20:00:24.677Z,11.98
2023-01-01T20:05:33.321Z,12.30
2023-01-01T20:10:38.706Z,11.99
2023-01-01T20:15:46.836Z,11.93
2023-01-01T20:21:09.542Z,11.85
2023-01-01T20:26:14.007Z,11.91
2023-01-01T20:31:20.327Z,11.96
2023-01-01T20:36:42.209Z,11.65
2023-01-01T20:41:46.068Z,11.30
2023-01-01T20:46:51.242Z,11.44
2023-01-01T20:51:55.476Z,11.43
2023-01-01T20:56:59.574Z,11.52
2023-01-01T21:02:05.126Z,12.35
2023-01-01T21:07:11.252Z,12.68
2023-01-01T21:12:15.344Z,12.91
2023-01-01T21:17:22.980Z,12.90
2023-01-01T21:22:28.976Z,12.67
2023-01-01T21:27:35.235Z,12.46
2023-01-01T21:32:42.860Z,12.61
2023-01-01T21:37:49.861Z,12.43
2023-01-01T21:42:56.602Z,12.54
2023-01-01T21:48:13.719Z,12.41
2023-01-01T21:53:19.541Z,12.43
2023-01-01T21:58:43.674Z,12.24
2023-01-01T22:03:52.613Z,12.07
2023-01-01T22:08:58.561Z,11.84
2023-01-01T22:14:09.384Z,11.79
2023-01-01T22:19:19.051Z,11.85
2023-01-01T22:24:41.082Z,11.64
2023-01-01T22:29:46.062Z,11.03
2023-01-01T22:34:52.238Z,11.11
2023-01-01T22:39:56.034Z,11.09
2023-01-01T22:45:00.392Z,10.38
2023-01-01T22:50:07.792Z,10.41
2023-01-01T22:55:11.439Z,10.00
2023-01-01T23:00:17.196Z,10.25
2023-01-01T23:05:22.392Z,10.13
2023-01-01T23:10:26.265Z,9.95
2023-01-01T23:15:52.299Z,9.95
2023-01-01T23:21:01.869Z,9.77
2023-01-01T23:26:06.646Z,9.90
2023-01-01T23:31:13.106Z,9.93
2023-01-01T23:36:18.110Z,10.58
2023-01-01T23:41:23.319Z,11.27
2023-01-01T23:46:28.171Z,12.29
2023-01-01T23:51:33.905Z,12.68
2023-01-01T23:56:38.293Z,13.02
